LESA Airport Information

Runway Information
Runway 03 Length 8202 ft width 197 ft
Elevation 2595 ft Threshold 0 ft Heading 28
Runway 21 Length 8202 ft Width 197 ft
Elevation 2586 ft Threshold 0 ft Heading 208
Runway 08 Length 6594 ft width 400 ft
Elevation 2587 ft Threshold 0 ft Heading 74
Runway 26 Length 6594 ft Width 400 ft
Elevation 2588 ft Threshold 0 ft Heading 254
Airport Frequencies
Type APP Name APP Frequency 124.4 MHZ
Type GND Name GND Frequency 121.85 MHZ
Type TWR Name TWR Frequency 139.3 MHZ
Airport Navaids
Type VOR-DME Name Salamanca Frequency 112200 KHZ
Type NDB Name Salamanca Frequency 399 KHZ
Type NDB Name Salamanca Frequency 423 KHZ
Type TACAN Name Salamanca Frequency 113300 KHZ
Airport Weather Information & NOTAM
ADDS - METARS form results

(0624 UTC 15 December 2018)
Data provider http://aviationweather.gov/metar/data/
 
METAR text: LESA 150600Z 20003KT 9999 OVC022 06/05 Q1025
Conditions at: LESA (SALAMANCA (CIV/M, ES) observed 0600 UTC 15 December 2018
Temperature: 6.0°C (43°F)
Dewpoint: 5.0°C (41°F) [RH = 93%]
Pressure (altimeter): 30.27 inches Hg (1025.0 mb)
Winds: from the SSW (200 degrees) at 3 MPH (3 knots; 1.5 m/s)
Visibility: 6 or more miles (10+ km)
Ceiling: 2200 feet AGL
Clouds: overcast cloud deck at 2200 feet AGL
Weather: no significant weather observed at this time

METAR text: LESA 150530Z AUTO 20004KT 8000 -RA OVC024/// 06/05 Q1025
Conditions at: LESA (SALAMANCA (CIV/M, ES) observed 0530 UTC 15 December 2018
Temperature: 6.0°C (43°F)
Dewpoint: 5.0°C (41°F) [RH = 93%]
Pressure (altimeter): 30.27 inches Hg (1025.0 mb)
Winds: from the SSW (200 degrees) at 5 MPH (4 knots; 2.1 m/s)
Visibility: 5 miles ( 8 km)
Ceiling: 2400 feet AGL
Clouds: overcast cloud deck at 2400 feet AGL
Weather: -RA  (light rain)

Forecast for: LESA (SALAMANCA (CIV/M, ES)
Text: TAF LESA 150500Z 1506/1606 22008KT 9999 BKN020 TX11/1514Z TN04/1506Z
Forecast period: 0600 to 1100 UTC 15 December 2018
Forecast type: FROM: standard forecast or significant change
Winds: from the SW (220 degrees) at 9 MPH (8 knots; 4.1 m/s)
Visibility: 6 or more miles 10+ km)
Ceiling: 2000 feet AGL
Clouds: broken clouds at 2000 feet AGL
Weather: no significant weather forecast for this period
Text: BECMG 1511/1513 BKN013
Forecast period: 1100 UTC 15 December 2018 to 0600 UTC 16 December 2018
Forecast type: BECOMING: Conditions expected to become as follows by 1300 UTC 15 December 2018
Winds: from the SW (220 degrees) at 9 MPH (8 knots; 4.1 m/s)
Visibility: 6 or more miles 10+ km)
Ceiling: 1300 feet AGL
Clouds: broken clouds at 1300 feet AGL
Weather: no significant weather forecast for this period
Text: TEMPO 1521/1606 3000 RA
Forecast period: 2100 UTC 15 December 2018 to 0600 UTC 16 December 2018
Forecast type: TEMPORARY: The following changes expected for less than half the time period
Visibility: 1.86 miles (2.99 km)
Ceiling: unknown
Clouds: missing
Weather: RA  (moderate rain)